Time;durP1;ratioP1;P1;durP2;ratioP2;P2;SDS_P1;SDS_P2;PMS_P1;PMS_P2;Temp;Humidity;BMP_temperature;BMP_pressure;BME280_temperature;BME280_humidity;BME280_pressure;Samples;Min_cycle;Max_cycle;Signal;HPM_P1;HPM_P2
2022/04/21 00:02:21;;;;;;;6.30;2.58;;;;;;;;;;5000069;28;20232;-14
2022/04/21 00:04:48;;;;;;;16.47;2.70;;;;;;;;;;4996616;28;20422;-14
2022/04/21 00:07:15;;;;;;;12.63;2.70;;;;;;;;;;4998652;28;20970;-14
2022/04/21 00:09:44;;;;;;;8.77;2.83;;;;;;;;;;4995803;28;20247;-14
2022/04/21 00:12:11;;;;;;;14.23;2.50;;;;;;;;;;4997203;28;20239;-14
2022/04/21 00:14:39;;;;;;;10.82;2.15;;;;;;;;;;4994676;28;20681;-14
2022/04/21 00:17:08;;;;;;;9.13;2.20;;;;;;;;;;4996503;28;20232;-14
2022/04/21 00:19:35;;;;;;;9.30;2.00;;;;;;;;;;4996113;28;20224;-14
2022/04/21 00:24:49;;;;;;;5.63;1.90;;;;;;;;;;4993071;28;20244;-14
2022/04/21 00:27:17;;;;;;;9.02;2.00;;;;;;;;;;5001900;28;20240;-14
2022/04/21 00:29:44;;;;;;;5.35;1.70;;;;;;;;;;5002612;28;21068;-14
2022/04/21 00:32:12;;;;;;;8.50;1.88;;;;;;;;;;5000429;28;20224;-14
2022/04/21 00:34:39;;;;;;;8.98;1.80;;;;;;;;;;5002109;28;20707;-14
2022/04/21 00:37:06;;;;;;;4.82;1.67;;;;;;;;;;5002295;28;20236;-14
2022/04/21 00:39:34;;;;;;;9.15;1.63;;;;;;;;;;5000883;28;20730;-14
2022/04/21 00:42:03;;;;;;;7.88;1.85;;;;;;;;;;5003760;28;20247;-15
2022/04/21 00:44:31;;;;;;;4.93;1.30;;;;;;;;;;5004064;28;20271;-14
2022/04/21 00:47:00;;;;;;;5.25;1.45;;;;;;;;;;5001743;28;20292;-14
2022/04/21 00:49:27;;;;;;;5.90;1.63;;;;;;;;;;5000882;28;20236;-14
2022/04/21 00:51:55;;;;;;;7.15;1.67;;;;;;;;;;4996460;28;21145;-14
2022/04/21 00:54:22;;;;;;;5.57;1.85;;;;;;;;;;4999520;28;20236;-14
2022/04/21 00:56:50;;;;;;;4.93;1.63;;;;;;;;;;5003738;28;20228;-14
2022/04/21 00:59:18;;;;;;;10.35;1.83;;;;;;;;;;5001459;28;20995;-14
2022/04/21 01:04:31;;;;;;;7.13;1.38;;;;;;;;;;5000314;28;20338;-14
2022/04/21 01:06:58;;;;;;;5.57;1.67;;;;;;;;;;5004380;28;20259;-14
2022/04/21 01:09:25;;;;;;;2.33;1.40;;;;;;;;;;5004382;28;20235;-14
2022/04/21 01:11:52;;;;;;;5.70;1.40;;;;;;;;;;4996462;28;20260;-14
2022/04/21 01:14:21;;;;;;;6.72;1.50;;;;;;;;;;5000562;28;20699;-14
2022/04/21 01:16:48;;;;;;;4.75;1.55;;;;;;;;;;4998528;28;20235;-14
2022/04/21 01:19:16;;;;;;;5.63;1.40;;;;;;;;;;5001433;28;20915;-14
2022/04/21 01:21:45;;;;;;;2.80;1.40;;;;;;;;;;5001030;28;20244;-14
2022/04/21 01:24:12;;;;;;;4.95;1.80;;;;;;;;;;5000322;28;20234;-14
2022/04/21 01:26:39;;;;;;;4.32;1.38;;;;;;;;;;5001980;28;20627;-14
2022/04/21 01:29:07;;;;;;;2.85;1.52;;;;;;;;;;5002689;28;20235;-14
2022/04/21 01:31:34;;;;;;;3.65;1.58;;;;;;;;;;4995176;28;20704;-14
2022/04/21 01:34:02;;;;;;;4.18;1.60;;;;;;;;;;5000760;28;20245;-14
2022/04/21 01:36:29;;;;;;;3.08;1.58;;;;;;;;;;4998746;28;20263;-14
2022/04/21 01:41:42;;;;;;;3.35;1.70;;;;;;;;;;4999513;28;20282;-14
2022/04/21 01:44:10;;;;;;;6.78;1.58;;;;;;;;;;4998276;28;20274;-14
2022/04/21 01:46:37;;;;;;;3.30;1.40;;;;;;;;;;4999742;28;20240;-14
2022/04/21 01:49:05;;;;;;;4.75;1.90;;;;;;;;;;5002351;28;20235;-14
2022/04/21 01:51:32;;;;;;;3.20;1.60;;;;;;;;;;5000766;28;20746;-14
2022/04/21 01:54:00;;;;;;;4.82;1.20;;;;;;;;;;4998530;28;20235;-14
2022/04/21 01:56:28;;;;;;;4.03;1.20;;;;;;;;;;4999269;28;20232;-14
2022/04/21 01:58:55;;;;;;;9.48;1.70;;;;;;;;;;5003415;28;20231;-14
2022/04/21 02:01:22;;;;;;;4.70;1.30;;;;;;;;;;4999339;28;20246;-14
2022/04/21 02:03:50;;;;;;;4.35;1.10;;;;;;;;;;4997848;28;20263;-14
2022/04/21 02:06:17;;;;;;;1.90;1.10;;;;;;;;;;5000206;28;21598;-14
2022/04/21 02:08:46;;;;;;;2.70;1.17;;;;;;;;;;5001536;28;20583;-14
2022/04/21 02:11:15;;;;;;;1.70;1.15;;;;;;;;;;5001050;28;20979;-14
2022/04/21 02:13:45;;;;;;;2.83;1.05;;;;;;;;;;4995924;28;20236;-14
2022/04/21 02:16:13;;;;;;;9.48;1.55;;;;;;;;;;4998269;28;20236;-14
2022/04/21 02:18:40;;;;;;;1.50;1.23;;;;;;;;;;5001350;28;20259;-14
2022/04/21 02:21:08;;;;;;;4.78;1.30;;;;;;;;;;4998535;28;20220;-14
2022/04/21 02:23:35;;;;;;;2.22;1.17;;;;;;;;;;4997534;28;20333;-14
2022/04/21 02:26:02;;;;;;;4.60;0.98;;;;;;;;;;4997545;28;20243;-14
2022/04/21 02:28:31;;;;;;;1.35;1.05;;;;;;;;;;4996956;28;20782;-14
2022/04/21 02:30:58;;;;;;;3.00;1.30;;;;;;;;;;4998879;28;20224;-14
2022/04/21 02:33:26;;;;;;;3.10;1.30;;;;;;;;;;5004487;28;20254;-14
2022/04/21 02:35:53;;;;;;;2.45;1.38;;;;;;;;;;5005150;28;20224;-14
2022/04/21 02:38:21;;;;;;;2.00;1.15;;;;;;;;;;5002579;28;20235;-14
2022/04/21 02:40:48;;;;;;;2.38;1.13;;;;;;;;;;5005691;28;20239;-14
2022/04/21 02:43:16;;;;;;;3.05;0.90;;;;;;;;;;5003912;28;20239;-14
2022/04/21 02:45:44;;;;;;;4.97;1.67;;;;;;;;;;5002441;28;20716;-14
2022/04/21 02:48:12;;;;;;;2.33;1.30;;;;;;;;;;5003763;28;20231;-14
2022/04/21 02:50:40;;;;;;;1.65;1.30;;;;;;;;;;5004315;28;20231;-14
2022/04/21 02:53:07;;;;;;;6.00;1.40;;;;;;;;;;5005182;28;20231;-14
2022/04/21 02:58:22;;;;;;;2.60;1.02;;;;;;;;;;5002334;28;21007;-14
2022/04/21 03:00:51;;;;;;;3.47;1.05;;;;;;;;;;5002460;28;20243;-14
2022/04/21 03:03:18;;;;;;;1.80;1.05;;;;;;;;;;5005422;28;20703;-14
2022/04/21 03:05:46;;;;;;;2.20;1.10;;;;;;;;;;4999052;28;20251;-14
2022/04/21 03:08:13;;;;;;;3.47;1.33;;;;;;;;;;5003782;28;21022;-14
2022/04/21 03:10:40;;;;;;;3.30;1.23;;;;;;;;;;5003732;28;20282;-14
2022/04/21 03:13:08;;;;;;;7.13;1.55;;;;;;;;;;5004430;28;20751;-14
2022/04/21 03:15:35;;;;;;;2.65;1.10;;;;;;;;;;5001609;28;20240;-14
2022/04/21 03:18:04;;;;;;;4.80;1.15;;;;;;;;;;5003397;28;20271;-14
2022/04/21 03:26:01;;;;;;;2.08;1.08;;;;;;;;;;4999183;28;20247;-14
2022/04/21 03:28:28;;;;;;;1.20;1.00;;;;;;;;;;4999169;28;20627;-13
2022/04/21 03:30:55;;;;;;;2.33;1.20;;;;;;;;;;5002558;28;20231;-14
2022/04/21 03:33:24;;;;;;;3.22;1.25;;;;;;;;;;5000800;28;20232;-13
2022/04/21 03:35:52;;;;;;;2.30;1.15;;;;;;;;;;5005161;28;20235;-14
2022/04/21 03:38:19;;;;;;;1.33;1.15;;;;;;;;;;5002246;28;20236;-14
2022/04/21 03:40:46;;;;;;;1.83;1.15;;;;;;;;;;5003778;28;20234;-14
2022/04/21 03:43:14;;;;;;;1.52;1.00;;;;;;;;;;5000258;28;20726;-14
2022/04/21 03:45:41;;;;;;;4.03;1.38;;;;;;;;;;5000083;28;20239;-14
2022/04/21 03:48:08;;;;;;;2.10;1.20;;;;;;;;;;5002922;28;20243;-14
2022/04/21 03:50:38;;;;;;;1.73;1.15;;;;;;;;;;5003889;28;20228;-14
2022/04/21 03:53:05;;;;;;;1.45;1.00;;;;;;;;;;5003795;28;20228;-14
2022/04/21 03:55:33;;;;;;;2.55;1.13;;;;;;;;;;5003213;28;21137;-14
2022/04/21 03:58:00;;;;;;;1.10;1.00;;;;;;;;;;5006224;28;20274;-14
2022/04/21 04:00:27;;;;;;;1.92;1.10;;;;;;;;;;5001997;28;20224;-14
2022/04/21 04:02:55;;;;;;;4.10;1.10;;;;;;;;;;4994897;28;20302;-14
2022/04/21 04:05:22;;;;;;;1.40;1.10;;;;;;;;;;5005820;28;20775;-14
2022/04/21 04:10:54;;;;;;;1.75;1.00;;;;;;;;;;5003426;28;20243;-14
2022/04/21 04:13:21;;;;;;;2.03;1.15;;;;;;;;;;5004170;28;20231;-14
2022/04/21 04:15:49;;;;;;;2.03;1.30;;;;;;;;;;5000020;28;20239;-14
2022/04/21 04:18:16;;;;;;;1.80;0.90;;;;;;;;;;5001990;28;20243;-14
2022/04/21 04:20:44;;;;;;;2.15;1.10;;;;;;;;;;5003725;28;20227;-13
2022/04/21 04:23:14;;;;;;;2.95;1.00;;;;;;;;;;5000418;28;20248;-14
2022/04/21 04:25:41;;;;;;;2.25;1.10;;;;;;;;;;5002803;28;20223;-13
2022/04/21 04:28:08;;;;;;;3.22;1.20;;;;;;;;;;4996499;28;20684;-14
2022/04/21 04:30:38;;;;;;;2.42;1.30;;;;;;;;;;5001145;28;20232;-14
2022/04/21 04:33:05;;;;;;;1.50;1.10;;;;;;;;;;5004728;28;20228;-14
2022/04/21 04:35:33;;;;;;;1.77;1.17;;;;;;;;;;5003676;28;20242;-14
2022/04/21 04:38:00;;;;;;;1.45;1.00;;;;;;;;;;4999772;28;20234;-14
2022/04/21 04:40:29;;;;;;;1.63;0.90;;;;;;;;;;5001224;28;20236;-14
2022/04/21 04:42:55;;;;;;;1.40;0.98;;;;;;;;;;5002241;28;20715;-13
2022/04/21 04:48:08;;;;;;;1.30;1.20;;;;;;;;;;4998540;28;20251;-13
2022/04/21 04:50:35;;;;;;;1.30;1.15;;;;;;;;;;5001124;28;20236;-14
2022/04/21 04:53:09;;;;;;;2.00;1.30;;;;;;;;;;5002053;28;20234;-14
2022/04/21 04:55:37;;;;;;;1.50;1.30;;;;;;;;;;5001476;28;20239;-14
2022/04/21 04:58:05;;;;;;;1.10;1.00;;;;;;;;;;5003024;28;20235;-14
2022/04/21 05:00:32;;;;;;;1.63;1.10;;;;;;;;;;4999944;28;20233;-14
2022/04/21 05:03:00;;;;;;;1.90;1.30;;;;;;;;;;4998752;28;20318;-13
2022/04/21 05:05:28;;;;;;;1.50;0.95;;;;;;;;;;4997410;28;20231;-14
2022/04/21 05:07:55;;;;;;;1.13;1.02;;;;;;;;;;4998234;28;20242;-14
2022/04/21 05:10:23;;;;;;;1.40;0.93;;;;;;;;;;4988890;28;20617;-14
2022/04/21 05:12:52;;;;;;;1.40;1.15;;;;;;;;;;4987977;28;20233;-14
2022/04/21 05:15:19;;;;;;;2.85;0.82;;;;;;;;;;4995138;28;20243;-14
2022/04/21 05:17:47;;;;;;;1.13;1.00;;;;;;;;;;5002424;28;20235;-14
2022/04/21 05:20:29;;;;;;;1.63;1.17;;;;;;;;;;5003811;28;20757;-14
2022/04/21 05:22:59;;;;;;;3.15;1.10;;;;;;;;;;5000436;28;20841;-14
2022/04/21 05:25:31;;;;;;;2.17;1.10;;;;;;;;;;5000428;28;20232;-14
2022/04/21 05:28:00;;;;;;;1.30;1.08;;;;;;;;;;4998180;28;20247;-14
2022/04/21 05:33:13;;;;;;;4.93;1.35;;;;;;;;;;4999062;28;20227;-14
2022/04/21 05:35:40;;;;;;;4.22;1.80;;;;;;;;;;5002976;28;20235;-14
2022/04/21 05:38:08;;;;;;;6.45;2.60;;;;;;;;;;5002231;28;20750;-14
2022/04/21 05:40:36;;;;;;;12.05;2.30;;;;;;;;;;5001409;28;20239;-14
2022/04/21 05:43:05;;;;;;;6.65;2.42;;;;;;;;;;5002548;28;20240;-14
2022/04/21 05:45:33;;;;;;;6.32;2.50;;;;;;;;;;5001543;28;20236;-14
2022/04/21 05:48:00;;;;;;;4.13;2.40;;;;;;;;;;5000293;28;20236;-14
2022/04/21 05:50:27;;;;;;;6.10;2.30;;;;;;;;;;5003335;28;20314;-14
2022/04/21 05:52:55;;;;;;;4.60;2.65;;;;;;;;;;4995974;28;20350;-14
2022/04/21 05:55:23;;;;;;;2.70;2.10;;;;;;;;;;5000870;28;20243;-14
2022/04/21 05:57:50;;;;;;;3.10;2.33;;;;;;;;;;4997375;28;20228;-14
2022/04/21 06:00:20;;;;;;;4.38;2.45;;;;;;;;;;4997787;28;20233;-14
2022/04/21 06:02:47;;;;;;;4.35;2.25;;;;;;;;;;5002445;28;20879;-14
2022/04/21 06:05:14;;;;;;;5.95;2.45;;;;;;;;;;4999995;28;20244;-14
2022/04/21 06:07:42;;;;;;;4.22;2.33;;;;;;;;;;5001711;28;20625;-14
2022/04/21 06:10:09;;;;;;;7.95;2.20;;;;;;;;;;5002078;28;20239;-14
2022/04/21 06:12:38;;;;;;;6.30;2.40;;;;;;;;;;5001732;28;20722;-14
2022/04/21 06:15:05;;;;;;;6.25;2.40;;;;;;;;;;5000635;28;20239;-14
2022/04/21 06:17:34;;;;;;;5.20;2.08;;;;;;;;;;4996357;28;20688;-14
2022/04/21 06:20:01;;;;;;;3.72;2.53;;;;;;;;;;5002399;28;20231;-14
2022/04/21 06:22:29;;;;;;;5.53;2.13;;;;;;;;;;5000374;28;20250;-14
2022/04/21 06:24:56;;;;;;;5.93;2.30;;;;;;;;;;4999790;28;20622;-13
2022/04/21 06:27:23;;;;;;;6.03;2.70;;;;;;;;;;4998494;28;20246;-14
2022/04/21 06:29:51;;;;;;;2.85;2.33;;;;;;;;;;5001225;28;20238;-13
2022/04/21 06:32:18;;;;;;;6.00;2.22;;;;;;;;;;4998021;28;20242;-14
2022/04/21 06:34:47;;;;;;;9.88;2.70;;;;;;;;;;4998516;28;20730;-13
2022/04/21 06:37:14;;;;;;;5.57;2.15;;;;;;;;;;4997900;28;20638;-14
2022/04/21 06:39:47;;;;;;;3.95;2.30;;;;;;;;;;4998632;28;20692;-14
2022/04/21 06:42:14;;;;;;;3.85;2.30;;;;;;;;;;4997444;28;20240;-14
2022/04/21 06:50:13;;;;;;;3.78;2.40;;;;;;;;;;4996202;28;20244;-14
2022/04/21 06:52:40;;;;;;;6.13;2.97;;;;;;;;;;4998225;28;20240;-14
2022/04/21 06:55:08;;;;;;;5.15;2.20;;;;;;;;;;4997326;28;20295;-14
2022/04/21 06:57:35;;;;;;;6.47;2.65;;;;;;;;;;4995534;28;20235;-14
2022/04/21 07:00:03;;;;;;;5.35;2.40;;;;;;;;;;4999165;28;20236;-15
2022/04/21 07:02:32;;;;;;;7.97;2.70;;;;;;;;;;4997260;28;20232;-14
2022/04/21 07:05:06;;;;;;;3.50;2.45;;;;;;;;;;4999192;28;20282;-14
2022/04/21 07:07:35;;;;;;;7.35;2.60;;;;;;;;;;4997912;28;20228;-14
2022/04/21 07:10:02;;;;;;;5.07;2.55;;;;;;;;;;4994432;28;20247;-14
2022/04/21 07:12:30;;;;;;;3.70;2.25;;;;;;;;;;4996242;28;20227;-14
2022/04/21 07:14:58;;;;;;;5.13;2.45;;;;;;;;;;4999152;28;20227;-14
2022/04/21 07:17:25;;;;;;;6.45;2.35;;;;;;;;;;5000069;28;20235;-14
2022/04/21 07:19:53;;;;;;;6.30;2.35;;;;;;;;;;5002282;28;20242;-14
2022/04/21 07:22:20;;;;;;;5.18;2.38;;;;;;;;;;4999718;28;20252;-13
2022/04/21 07:24:49;;;;;;;4.40;2.40;;;;;;;;;;5006166;28;20247;-13
2022/04/21 07:27:16;;;;;;;5.50;2.28;;;;;;;;;;5003326;28;20990;-14
2022/04/21 07:29:44;;;;;;;4.13;2.20;;;;;;;;;;5003323;28;20700;-14
2022/04/21 07:32:11;;;;;;;4.43;2.53;;;;;;;;;;5001084;28;20237;-15
2022/04/21 07:34:39;;;;;;;7.05;2.58;;;;;;;;;;5002218;28;20224;-13
2022/04/21 07:37:08;;;;;;;5.43;2.30;;;;;;;;;;5003157;28;20295;-15
2022/04/21 07:39:37;;;;;;;2.90;2.20;;;;;;;;;;5002239;28;20754;-13
2022/04/21 07:42:06;;;;;;;4.90;2.30;;;;;;;;;;5002071;28;20231;-13
2022/04/21 07:44:35;;;;;;;3.38;2.00;;;;;;;;;;4997995;28;20712;-13
2022/04/21 07:47:03;;;;;;;4.60;2.17;;;;;;;;;;5000068;28;20301;-14
2022/04/21 07:49:49;;;;;;;4.75;2.55;;;;;;;;;;4999271;28;20306;-14
2022/04/21 07:55:08;;;;;;;12.50;2.92;;;;;;;;;;4996240;28;20228;-14
2022/04/21 07:57:37;;;;;;;19.80;2.63;;;;;;;;;;4992904;28;20236;-13
2022/04/21 08:00:05;;;;;;;8.00;2.28;;;;;;;;;;4997000;28;20234;-14
2022/04/21 08:02:32;;;;;;;23.30;2.47;;;;;;;;;;4990560;28;20232;-14
2022/04/21 08:05:00;;;;;;;17.75;2.80;;;;;;;;;;4987032;28;20232;-14
2022/04/21 08:07:27;;;;;;;11.00;2.40;;;;;;;;;;4986545;28;20819;-14
2022/04/21 08:09:55;;;;;;;11.75;2.10;;;;;;;;;;4987462;28;20707;-14
2022/04/21 08:12:22;;;;;;;9.50;2.45;;;;;;;;;;4989907;28;20240;-14
2022/04/21 08:14:51;;;;;;;8.55;2.35;;;;;;;;;;4990468;28;20243;-14
2022/04/21 08:17:18;;;;;;;9.43;2.22;;;;;;;;;;4990642;28;20238;-16
2022/04/21 08:19:45;;;;;;;8.57;2.35;;;;;;;;;;4990755;28;20231;-14
2022/04/21 08:22:13;;;;;;;8.57;2.30;;;;;;;;;;4989594;28;20244;-15
2022/04/21 08:33:15;;;;;;;8.18;2.13;;;;;;;;;;4988975;28;20945;-15
2022/04/21 08:35:43;;;;;;;9.63;2.05;;;;;;;;;;4990434;28;20691;-15
2022/04/21 08:38:11;;;;;;;17.60;3.47;;;;;;;;;;4990540;28;20251;-15
2022/04/21 08:40:39;;;;;;;25.40;3.38;;;;;;;;;;4989346;28;20236;-15
2022/04/21 08:43:07;;;;;;;18.45;3.20;;;;;;;;;;4993733;28;21059;-16
2022/04/21 08:45:36;;;;;;;11.48;3.47;;;;;;;;;;4993725;28;20591;-15
2022/04/21 08:48:03;;;;;;;12.95;2.95;;;;;;;;;;4997726;28;20235;-15
2022/04/21 08:50:31;;;;;;;13.93;2.80;;;;;;;;;;4996242;28;20240;-14
2022/04/21 08:52:59;;;;;;;8.20;2.42;;;;;;;;;;4998060;28;20232;-14
2022/04/21 08:55:27;;;;;;;12.27;2.83;;;;;;;;;;4992958;28;20719;-14
2022/04/21 08:57:54;;;;;;;11.73;3.30;;;;;;;;;;4990341;28;20242;-14
2022/04/21 09:00:21;;;;;;;8.48;2.60;;;;;;;;;;4991076;28;21089;-15
2022/04/21 09:02:50;;;;;;;5.63;2.65;;;;;;;;;;4989885;28;20590;-14
2022/04/21 09:05:20;;;;;;;7.55;2.90;;;;;;;;;;4988990;28;20430;-14
2022/04/21 09:07:47;;;;;;;6.50;2.42;;;;;;;;;;4990586;28;20243;-14
2022/04/21 09:10:35;;;;;;;13.30;2.77;;;;;;;;;;4994070;28;20427;-15
2022/04/21 09:13:03;;;;;;;8.93;2.55;;;;;;;;;;4996047;28;20258;-14
2022/04/21 09:15:30;;;;;;;6.15;2.38;;;;;;;;;;4993277;28;21000;-14
2022/04/21 09:17:59;;;;;;;7.90;2.50;;;;;;;;;;4991211;28;20750;-14
2022/04/21 09:20:29;;;;;;;3.05;2.40;;;;;;;;;;4991912;28;20228;-14
2022/04/21 09:22:57;;;;;;;4.38;2.35;;;;;;;;;;4993590;28;20254;-14
2022/04/21 09:25:25;;;;;;;13.27;2.60;;;;;;;;;;4995555;28;20415;-14
2022/04/21 09:27:52;;;;;;;8.93;2.60;;;;;;;;;;4992048;28;20232;-15
2022/04/21 09:30:20;;;;;;;8.23;1.90;;;;;;;;;;4993359;28;20251;-15
2022/04/21 09:32:51;;;;;;;3.17;1.63;;;;;;;;;;4994760;28;20658;-16
2022/04/21 09:35:20;;;;;;;6.70;2.00;;;;;;;;;;4997168;28;20233;-16
2022/04/21 09:37:49;;;;;;;5.25;1.85;;;;;;;;;;4994970;28;20240;-16
2022/04/21 09:40:16;;;;;;;4.05;1.88;;;;;;;;;;4995497;28;20235;-16
2022/04/21 09:42:44;;;;;;;3.17;1.90;;;;;;;;;;4997441;28;20998;-15
2022/04/21 09:47:56;;;;;;;5.82;1.83;;;;;;;;;;4988912;28;20240;-14
2022/04/21 09:50:26;;;;;;;6.10;2.00;;;;;;;;;;4997282;28;20244;-15
2022/04/21 09:52:54;;;;;;;5.88;1.98;;;;;;;;;;4997089;28;20241;-15
2022/04/21 09:55:21;;;;;;;7.22;2.35;;;;;;;;;;4994907;28;20243;-16
2022/04/21 09:57:50;;;;;;;6.65;2.08;;;;;;;;;;4995435;28;20243;-15
2022/04/21 10:00:20;;;;;;;3.97;1.90;;;;;;;;;;4991087;28;20715;-16
2022/04/21 10:02:48;;;;;;;8.60;2.25;;;;;;;;;;4998709;28;20232;-15
2022/04/21 10:05:16;;;;;;;4.28;2.15;;;;;;;;;;4992167;28;20306;-16
2022/04/21 10:07:46;;;;;;;4.15;1.80;;;;;;;;;;5000115;28;20707;-14
2022/04/21 10:10:13;;;;;;;3.55;2.22;;;;;;;;;;4995721;28;20246;-14
2022/04/21 10:12:41;;;;;;;4.88;2.00;;;;;;;;;;4997143;28;20244;-15
2022/04/21 10:15:08;;;;;;;4.78;2.10;;;;;;;;;;4993939;28;20236;-15
2022/04/21 10:17:36;;;;;;;7.63;2.13;;;;;;;;;;4993323;28;20335;-15
2022/04/21 10:20:03;;;;;;;3.10;2.20;;;;;;;;;;4993715;28;20699;-15
2022/04/21 10:22:32;;;;;;;4.40;2.50;;;;;;;;;;4990296;28;20948;-16
2022/04/21 10:25:01;;;;;;;2.72;2.08;;;;;;;;;;4994796;28;20624;-15
2022/04/21 10:27:38;;;;;;;2.40;1.77;;;;;;;;;;4992701;28;20238;-15
2022/04/21 10:30:15;;;;;;;7.10;2.00;;;;;;;;;;4997292;28;20429;-16
2022/04/21 10:32:46;;;;;;;6.40;2.08;;;;;;;;;;4993139;28;20243;-16
2022/04/21 10:35:29;;;;;;;8.48;2.08;;;;;;;;;;4994241;28;20422;-15
2022/04/21 10:38:11;;;;;;;10.15;2.10;;;;;;;;;;4982904;28;20608;-15
2022/04/21 10:40:43;;;;;;;8.38;1.88;;;;;;;;;;4994438;28;20990;-15
2022/04/21 10:43:15;;;;;;;6.05;1.80;;;;;;;;;;4993497;28;20239;-15
2022/04/21 10:45:43;;;;;;;7.90;2.08;;;;;;;;;;4997064;28;20240;-15
2022/04/21 10:48:12;;;;;;;2.22;1.48;;;;;;;;;;4994658;28;20232;-15
2022/04/21 10:50:40;;;;;;;4.30;1.80;;;;;;;;;;4993386;28;21022;-16
2022/04/21 10:58:49;;;;;;;6.10;2.30;;;;;;;;;;5001954;28;20401;-16
2022/04/21 11:01:24;;;;;;;2.92;1.98;;;;;;;;;;4994873;28;20331;-16
2022/04/21 11:04:10;;;;;;;3.05;1.88;;;;;;;;;;4998447;28;20227;-16
2022/04/21 11:06:38;;;;;;;4.43;1.92;;;;;;;;;;4994864;28;20267;-16
2022/04/21 11:09:06;;;;;;;3.85;1.80;;;;;;;;;;5001609;28;20326;-16
2022/04/21 11:11:47;;;;;;;4.63;2.05;;;;;;;;;;4997348;28;20243;-17
2022/04/21 11:14:27;;;;;;;4.78;1.98;;;;;;;;;;4999817;28;20235;-16
2022/04/21 11:16:55;;;;;;;4.20;2.00;;;;;;;;;;4993126;28;20242;-17
2022/04/21 11:19:35;;;;;;;5.18;1.58;;;;;;;;;;4997391;28;20235;-16
2022/04/21 11:22:02;;;;;;;4.72;1.70;;;;;;;;;;4991096;28;20398;-17
2022/04/21 11:24:45;;;;;;;4.30;2.40;;;;;;;;;;4995077;28;20431;-16
2022/04/21 11:27:13;;;;;;;5.78;2.38;;;;;;;;;;4996746;28;20583;-16
2022/04/21 11:29:41;;;;;;;5.57;2.35;;;;;;;;;;4998533;28;20266;-16
2022/04/21 11:32:09;;;;;;;4.82;1.95;;;;;;;;;;5003267;28;20238;-16
2022/04/21 11:34:36;;;;;;;4.70;1.90;;;;;;;;;;5002455;28;20235;-15
2022/04/21 11:37:08;;;;;;;4.72;1.92;;;;;;;;;;5002297;28;20235;-15
2022/04/21 11:39:38;;;;;;;2.83;1.60;;;;;;;;;;5001676;28;20311;-16
2022/04/21 11:42:05;;;;;;;2.83;1.40;;;;;;;;;;5004175;28;20243;-16
2022/04/21 11:44:34;;;;;;;3.78;1.45;;;;;;;;;;5001833;28;20994;-16
2022/04/21 11:47:03;;;;;;;3.75;1.60;;;;;;;;;;5001635;28;20223;-15
2022/04/21 11:49:30;;;;;;;4.97;1.48;;;;;;;;;;5002275;28;20232;-15
2022/04/21 11:51:58;;;;;;;1.50;1.38;;;;;;;;;;5005164;28;20239;-16
2022/04/21 11:54:25;;;;;;;2.10;1.38;;;;;;;;;;5001806;28;20319;-16
2022/04/21 11:56:53;;;;;;;2.50;1.65;;;;;;;;;;5001293;28;20240;-15
2022/04/21 11:59:20;;;;;;;2.08;1.30;;;;;;;;;;5001725;28;20228;-15
2022/04/21 12:07:19;;;;;;;3.63;1.63;;;;;;;;;;5005195;28;20224;-16
2022/04/21 12:09:48;;;;;;;1.92;1.40;;;;;;;;;;5000970;28;20235;-16
2022/04/21 12:12:19;;;;;;;1.83;1.60;;;;;;;;;;4998763;28;20239;-14
2022/04/21 12:14:46;;;;;;;2.33;1.70;;;;;;;;;;5004283;28;20243;-16
2022/04/21 12:17:16;;;;;;;3.05;1.77;;;;;;;;;;5000943;28;20692;-16
2022/04/21 12:19:44;;;;;;;2.08;1.30;;;;;;;;;;5001211;28;20238;-16
2022/04/21 12:22:13;;;;;;;1.88;1.42;;;;;;;;;;5002418;28;20247;-16
2022/04/21 12:24:41;;;;;;;4.22;1.52;;;;;;;;;;5001301;28;20259;-16
2022/04/21 12:27:12;;;;;;;2.90;1.50;;;;;;;;;;5000914;28;20227;-16
2022/04/21 12:29:46;;;;;;;4.15;1.52;;;;;;;;;;5002977;28;20326;-16
2022/04/21 12:32:13;;;;;;;2.25;1.67;;;;;;;;;;5001975;28;20239;-16
2022/04/21 12:34:42;;;;;;;5.70;1.90;;;;;;;;;;5001503;28;20246;-16
2022/04/21 12:37:09;;;;;;;3.58;2.13;;;;;;;;;;5003114;28;20235;-16
2022/04/21 12:39:37;;;;;;;5.72;1.98;;;;;;;;;;5002326;28;20622;-16
2022/04/21 12:42:24;;;;;;;5.57;2.20;;;;;;;;;;4992790;28;20431;-16
2022/04/21 12:44:53;;;;;;;7.35;2.33;;;;;;;;;;4999131;28;20235;-16
2022/04/21 12:47:20;;;;;;;4.70;2.13;;;;;;;;;;4990623;28;20434;-16
2022/04/21 12:49:58;;;;;;;4.05;2.00;;;;;;;;;;4991854;28;20236;-16
2022/04/21 12:52:32;;;;;;;10.43;2.50;;;;;;;;;;4987179;28;20438;-14
2022/04/21 12:55:00;;;;;;;5.88;2.13;;;;;;;;;;4989003;28;20238;-15
2022/04/21 12:57:27;;;;;;;4.85;2.17;;;;;;;;;;4997414;28;20238;-17
2022/04/21 12:59:55;;;;;;;6.65;2.17;;;;;;;;;;4993800;28;20267;-15
2022/04/21 13:02:22;;;;;;;4.97;2.17;;;;;;;;;;4997285;28;20240;-15
2022/04/21 13:04:50;;;;;;;5.00;2.03;;;;;;;;;;4993710;28;20232;-15
2022/04/21 13:07:18;;;;;;;4.85;1.83;;;;;;;;;;4995445;28;20236;-16
2022/04/21 13:09:46;;;;;;;7.38;2.10;;;;;;;;;;4994287;28;20240;-16
2022/04/21 13:12:13;;;;;;;6.13;1.98;;;;;;;;;;4995673;28;20243;-16
2022/04/21 13:14:40;;;;;;;5.03;2.20;;;;;;;;;;4991552;28;20240;-16
2022/04/21 13:17:08;;;;;;;4.95;2.40;;;;;;;;;;4991765;28;20232;-16
2022/04/21 13:19:35;;;;;;;5.18;2.13;;;;;;;;;;4995303;28;20247;-17
2022/04/21 13:22:04;;;;;;;2.30;1.85;;;;;;;;;;4996204;28;20271;-16
2022/04/21 13:24:33;;;;;;;2.47;1.95;;;;;;;;;;4994495;28;20231;-17
2022/04/21 13:27:01;;;;;;;3.22;2.00;;;;;;;;;;4992966;28;21222;-16
2022/04/21 13:29:29;;;;;;;8.93;2.08;;;;;;;;;;4990097;28;20243;-17
2022/04/21 13:34:42;;;;;;;6.65;2.42;;;;;;;;;;4987297;28;20840;-16
2022/04/21 13:37:09;;;;;;;6.18;2.28;;;;;;;;;;4987191;28;20444;-16
2022/04/21 13:39:40;;;;;;;9.70;2.25;;;;;;;;;;4984787;28;20236;-15
2022/04/21 13:42:08;;;;;;;3.15;1.90;;;;;;;;;;4985231;28;20247;-16
2022/04/21 13:44:35;;;;;;;5.00;2.00;;;;;;;;;;4987074;28;21126;-15
2022/04/21 13:47:23;;;;;;;3.42;2.03;;;;;;;;;;4986470;28;20244;-17
2022/04/21 13:49:50;;;;;;;7.47;2.00;;;;;;;;;;4980859;28;20452;-17
2022/04/21 13:52:17;;;;;;;3.80;1.70;;;;;;;;;;4996058;28;20471;-17
2022/04/21 13:54:46;;;;;;;7.22;2.35;;;;;;;;;;4991208;28;20442;-17
2022/04/21 13:57:14;;;;;;;6.25;2.30;;;;;;;;;;4995607;28;20240;-17
2022/04/21 13:59:41;;;;;;;4.65;1.52;;;;;;;;;;4990816;28;20594;-17
2022/04/21 14:02:09;;;;;;;2.72;2.00;;;;;;;;;;4990409;28;20236;-18
2022/04/21 14:04:36;;;;;;;2.15;1.83;;;;;;;;;;4986810;28;20228;-16
2022/04/21 14:07:04;;;;;;;4.90;2.03;;;;;;;;;;4988838;28;20239;-17
2022/04/21 14:09:31;;;;;;;4.68;2.00;;;;;;;;;;4988140;28;20966;-16
2022/04/21 14:12:00;;;;;;;4.50;1.73;;;;;;;;;;4990858;28;20239;-16
2022/04/21 14:14:28;;;;;;;4.10;2.13;;;;;;;;;;4993921;28;20849;-16
2022/04/21 14:16:55;;;;;;;3.47;2.10;;;;;;;;;;4988454;28;20435;-16
2022/04/21 14:19:23;;;;;;;4.68;1.63;;;;;;;;;;4996716;28;20245;-17
2022/04/21 14:21:50;;;;;;;8.02;2.20;;;;;;;;;;4987426;28;20430;-16
2022/04/21 14:24:17;;;;;;;6.30;2.40;;;;;;;;;;4993102;28;20462;-17
2022/04/21 14:26:45;;;;;;;11.23;2.30;;;;;;;;;;4997030;28;20439;-16
2022/04/21 14:29:14;;;;;;;13.97;3.10;;;;;;;;;;4991046;28;20427;-18
2022/04/21 14:31:41;;;;;;;7.00;2.33;;;;;;;;;;4993239;28;20597;-16
2022/04/21 14:34:09;;;;;;;9.90;2.20;;;;;;;;;;4997178;28;21174;-16
2022/04/21 14:36:36;;;;;;;4.00;2.50;;;;;;;;;;4992942;28;20255;-16
2022/04/21 14:44:36;;;;;;;7.13;2.50;;;;;;;;;;4990580;28;20227;-15
2022/04/21 14:47:05;;;;;;;4.57;2.72;;;;;;;;;;4992674;28;20267;-15
2022/04/21 14:49:50;;;;;;;7.65;2.30;;;;;;;;;;4994188;28;20247;-15
2022/04/21 14:52:19;;;;;;;5.30;2.33;;;;;;;;;;4999141;28;20246;-15
2022/04/21 14:54:47;;;;;;;4.05;2.70;;;;;;;;;;4992674;28;20242;-16
2022/04/21 14:57:14;;;;;;;6.65;3.00;;;;;;;;;;4989515;28;20246;-15
2022/04/21 14:59:43;;;;;;;5.25;2.67;;;;;;;;;;4991638;28;20719;-16
2022/04/21 15:02:10;;;;;;;5.95;2.63;;;;;;;;;;4993308;28;20232;-17
2022/04/21 15:04:38;;;;;;;4.13;3.05;;;;;;;;;;4993228;28;20683;-15
2022/04/21 15:07:06;;;;;;;4.43;2.83;;;;;;;;;;4993948;28;20240;-17
2022/04/21 15:09:33;;;;;;;5.28;3.00;;;;;;;;;;4988902;28;20950;-16
2022/04/21 15:12:01;;;;;;;6.20;3.00;;;;;;;;;;4992028;28;20244;-16
2022/04/21 15:14:28;;;;;;;4.97;3.40;;;;;;;;;;4995696;28;20250;-16
2022/04/21 15:16:58;;;;;;;3.78;2.85;;;;;;;;;;4994531;28;20242;-16
2022/04/21 15:19:25;;;;;;;5.97;2.70;;;;;;;;;;4993746;28;20446;-16
2022/04/21 15:21:52;;;;;;;5.72;3.30;;;;;;;;;;4990945;28;20527;-16
2022/04/21 15:24:20;;;;;;;7.22;3.42;;;;;;;;;;4989050;28;20227;-17
2022/04/21 15:26:47;;;;;;;10.02;3.78;;;;;;;;;;4986554;28;20236;-16
2022/04/21 15:29:15;;;;;;;6.40;2.92;;;;;;;;;;4989838;28;20241;-16
2022/04/21 15:31:43;;;;;;;7.30;3.47;;;;;;;;;;4994358;28;20240;-16
2022/04/21 15:34:12;;;;;;;6.20;2.95;;;;;;;;;;4996275;28;21024;-16
2022/04/21 15:36:39;;;;;;;10.55;3.83;;;;;;;;;;4989645;28;20240;-15
2022/04/21 15:39:06;;;;;;;5.82;3.10;;;;;;;;;;4994187;28;20231;-16
2022/04/21 15:41:34;;;;;;;7.97;2.92;;;;;;;;;;4991650;28;20715;-15
2022/04/21 15:44:02;;;;;;;12.77;4.07;;;;;;;;;;4998608;28;20236;-15
2022/04/21 15:46:30;;;;;;;9.35;3.60;;;;;;;;;;4992882;28;20239;-16
2022/04/21 15:48:57;;;;;;;10.32;3.03;;;;;;;;;;4997242;28;20248;-15
2022/04/21 15:51:26;;;;;;;9.05;3.60;;;;;;;;;;4988753;28;20231;-16
2022/04/21 15:59:22;;;;;;;9.95;3.30;;;;;;;;;;4991060;28;20232;-16